createdAt,value
2023-07-03T00:02:02.213Z,23.33
2023-07-03T00:04:29.162Z,16.98
2023-07-03T00:06:55.727Z,18.33
2023-07-03T00:09:22.231Z,14.05
2023-07-03T00:11:49.054Z,26.52
2023-07-03T00:14:15.580Z,13.40
2023-07-03T00:16:42.080Z,22.40
2023-07-03T00:19:09.031Z,17.83
2023-07-03T00:21:39.545Z,16.17
2023-07-03T00:24:07.006Z,22.02
2023-07-03T00:26:33.454Z,18.60
2023-07-03T00:29:01.094Z,14.45
2023-07-03T00:31:27.723Z,18.63
2023-07-03T00:33:54.255Z,18.48
2023-07-03T00:36:22.776Z,18.92
2023-07-03T00:38:49.293Z,17.63
2023-07-03T00:41:15.824Z,20.63
2023-07-03T00:43:42.862Z,20.55
2023-07-03T00:46:10.258Z,17.30
2023-07-03T00:48:40.487Z,22.20
2023-07-03T00:51:07.557Z,21.92
2023-07-03T00:53:34.044Z,21.58
2023-07-03T00:56:00.501Z,24.23
2023-07-03T00:58:27.274Z,13.60
2023-07-03T01:00:57.694Z,12.15
2023-07-03T01:03:27.854Z,16.48
2023-07-03T01:05:56.554Z,16.58
2023-07-03T01:08:23.322Z,21.75
2023-07-03T01:10:49.929Z,21.15
2023-07-03T01:13:18.238Z,18.02
2023-07-03T01:15:45.824Z,20.85
2023-07-03T01:18:13.028Z,21.05
2023-07-03T01:20:42.822Z,21.65
2023-07-03T01:23:14.896Z,12.32
2023-07-03T01:25:42.564Z,17.75
2023-07-03T01:28:11.334Z,23.50
2023-07-03T01:30:41.803Z,18.77
2023-07-03T01:33:09.402Z,25.17
2023-07-03T01:35:35.878Z,23.95
2023-07-03T01:38:03.976Z,19.80
2023-07-03T01:40:30.727Z,19.02
2023-07-03T01:42:58.128Z,20.23
2023-07-03T01:45:25.679Z,22.40
2023-07-03T01:47:52.676Z,21.55
2023-07-03T01:50:24.581Z,36.95
2023-07-03T01:52:55.678Z,16.52
2023-07-03T01:55:39.737Z,12.48
2023-07-03T01:58:07.521Z,22.27
2023-07-03T02:00:41.568Z,22.75
2023-07-03T02:03:19.418Z,24.48
2023-07-03T02:05:46.898Z,22.30
2023-07-03T02:08:14.542Z,15.00
2023-07-03T02:10:40.978Z,28.92
2023-07-03T02:13:07.444Z,24.48
2023-07-03T02:15:35.433Z,27.08
2023-07-03T02:18:03.454Z,31.33
2023-07-03T02:20:31.228Z,16.55
2023-07-03T02:22:57.775Z,24.92
2023-07-03T02:25:24.689Z,23.10
2023-07-03T02:27:51.524Z,22.88
2023-07-03T02:30:17.970Z,22.85
2023-07-03T02:32:44.438Z,26.30
2023-07-03T02:35:11.118Z,19.98
2023-07-03T02:37:37.991Z,22.88
2023-07-03T02:40:11.277Z,22.70
2023-07-03T02:42:37.704Z,19.63
2023-07-03T02:45:05.739Z,19.13
2023-07-03T02:47:34.209Z,24.48
2023-07-03T02:50:02.379Z,22.25
2023-07-03T02:52:29.629Z,17.50
2023-07-03T02:54:56.230Z,21.45
2023-07-03T02:57:22.727Z,20.25
2023-07-03T02:59:50.343Z,21.73
2023-07-03T03:02:17.295Z,24.77
2023-07-03T03:04:43.852Z,21.50
2023-07-03T03:07:10.447Z,26.42
2023-07-03T03:09:37.654Z,18.38
2023-07-03T03:12:04.340Z,23.90
2023-07-03T03:14:31.740Z,28.42
2023-07-03T03:16:58.589Z,25.83
2023-07-03T03:19:25.267Z,17.95
2023-07-03T03:21:52.098Z,21.27
2023-07-03T03:24:19.487Z,20.80
2023-07-03T03:26:45.936Z,25.27
2023-07-03T03:29:12.575Z,20.85
2023-07-03T03:31:40.134Z,21.77
2023-07-03T03:34:07.829Z,22.30
2023-07-03T03:36:39.802Z,23.15
2023-07-03T03:39:07.542Z,21.80
2023-07-03T03:41:34.024Z,20.67
2023-07-03T03:44:01.927Z,22.83
2023-07-03T03:46:29.571Z,30.67
2023-07-03T03:48:56.242Z,19.55
2023-07-03T03:51:23.152Z,25.05
2023-07-03T03:53:50.092Z,17.90
2023-07-03T03:56:16.620Z,20.27
2023-07-03T03:58:44.359Z,19.25
2023-07-03T04:01:10.988Z,19.63
2023-07-03T04:03:39.790Z,16.25
2023-07-03T04:06:09.031Z,14.95
2023-07-03T04:08:36.908Z,18.80
2023-07-03T04:11:05.273Z,8.90
2023-07-03T04:13:33.106Z,18.60
2023-07-03T04:16:01.640Z,19.58
2023-07-03T04:18:29.411Z,18.55
2023-07-03T04:20:56.088Z,16.42
2023-07-03T04:23:23.464Z,7.85
2023-07-03T04:25:50.466Z,9.98
2023-07-03T04:28:18.279Z,10.57
2023-07-03T04:30:45.426Z,12.95
2023-07-03T04:33:12.542Z,16.38
2023-07-03T04:35:39.189Z,17.02
2023-07-03T04:38:05.988Z,9.48
2023-07-03T04:40:32.472Z,12.23
2023-07-03T04:42:58.984Z,11.13
2023-07-03T04:45:26.436Z,6.38
2023-07-03T04:47:53.239Z,7.72
2023-07-03T04:50:19.838Z,12.27
2023-07-03T04:52:47.609Z,7.65
2023-07-03T04:55:14.119Z,4.30
2023-07-03T04:57:41.994Z,8.18
2023-07-03T05:00:15.815Z,7.20
2023-07-03T05:02:44.062Z,4.57
2023-07-03T05:05:12.784Z,7.63
2023-07-03T05:07:42.087Z,6.28
2023-07-03T05:10:09.486Z,7.25
2023-07-03T05:12:36.927Z,7.47
2023-07-03T05:15:04.306Z,6.25
2023-07-03T05:17:31.214Z,6.53
2023-07-03T05:19:57.780Z,5.22
2023-07-03T05:22:25.475Z,6.78
2023-07-03T05:24:52.012Z,4.95
2023-07-03T05:27:18.620Z,4.82
2023-07-03T05:29:45.145Z,5.18
2023-07-03T05:32:13.449Z,4.22
2023-07-03T05:34:41.260Z,9.65
2023-07-03T05:37:08.114Z,4.75
2023-07-03T05:39:35.756Z,5.57
2023-07-03T05:42:02.821Z,4.78
2023-07-03T05:44:29.529Z,13.75
2023-07-03T05:46:56.037Z,4.38
2023-07-03T05:49:22.555Z,12.43
2023-07-03T05:51:49.779Z,7.82
2023-07-03T05:54:17.784Z,7.63
2023-07-03T05:56:55.862Z,8.85
2023-07-03T05:59:22.242Z,7.00
2023-07-03T06:01:48.753Z,15.80
2023-07-03T06:04:15.444Z,9.13
2023-07-03T06:06:41.940Z,4.43
2023-07-03T06:09:08.802Z,7.65
2023-07-03T06:11:35.192Z,8.18
2023-07-03T06:14:02.244Z,5.95
2023-07-03T06:16:31.479Z,8.85
2023-07-03T06:18:57.931Z,9.05
2023-07-03T06:21:24.433Z,6.93
2023-07-03T06:23:50.984Z,11.02
2023-07-03T06:26:17.686Z,9.27
2023-07-03T06:28:45.564Z,10.57
2023-07-03T06:31:12.018Z,7.70
2023-07-03T06:33:38.537Z,8.05
2023-07-03T06:36:05.170Z,9.15
2023-07-03T06:38:33.873Z,6.82
2023-07-03T06:41:00.345Z,6.35
2023-07-03T06:43:26.948Z,6.72
2023-07-03T06:45:56.142Z,8.32
2023-07-03T06:48:26.005Z,10.27
2023-07-03T06:51:00.775Z,7.90
2023-07-03T06:53:27.209Z,14.77
2023-07-03T06:55:59.114Z,8.00
2023-07-03T06:58:26.411Z,7.53
2023-07-03T07:00:53.053Z,12.43
2023-07-03T07:03:21.168Z,10.00
2023-07-03T07:05:47.915Z,8.27
2023-07-03T07:08:19.884Z,7.93
2023-07-03T07:10:46.678Z,5.93
2023-07-03T07:13:14.450Z,5.25
2023-07-03T07:15:42.184Z,10.10
2023-07-03T07:18:09.450Z,14.18
2023-07-03T07:20:40.092Z,4.40
2023-07-03T07:23:10.050Z,3.80
2023-07-03T07:25:37.624Z,6.93
2023-07-03T07:28:04.102Z,9.45
2023-07-03T07:30:30.475Z,7.28
2023-07-03T07:32:57.697Z,8.77
2023-07-03T07:35:24.535Z,16.63
2023-07-03T07:37:50.981Z,4.60
2023-07-03T07:40:17.643Z,9.75
2023-07-03T07:42:44.428Z,8.43
2023-07-03T07:45:12.154Z,5.93
2023-07-03T07:47:39.683Z,7.10
2023-07-03T07:50:06.616Z,13.70
2023-07-03T07:52:33.120Z,8.32
2023-07-03T07:54:59.826Z,13.02
2023-07-03T07:57:26.947Z,4.97
2023-07-03T07:59:53.409Z,5.07
2023-07-03T08:02:19.926Z,4.68
2023-07-03T08:04:46.647Z,7.78
2023-07-03T08:07:13.307Z,7.38
2023-07-03T08:09:40.069Z,5.32
2023-07-03T08:12:07.095Z,6.47
2023-07-03T08:14:33.493Z,3.78
2023-07-03T08:16:59.975Z,6.78
2023-07-03T08:19:27.434Z,5.50
2023-07-03T08:21:56.542Z,5.53
2023-07-03T08:24:23.341Z,6.22
2023-07-03T08:26:51.247Z,5.93
2023-07-03T08:29:17.812Z,6.32
2023-07-03T08:31:46.087Z,6.70
2023-07-03T08:34:14.100Z,9.70
2023-07-03T08:39:09.922Z,5.28
2023-07-03T08:41:41.605Z,7.45
2023-07-03T08:44:08.405Z,6.57
2023-07-03T08:46:35.043Z,3.85
2023-07-03T08:49:05.148Z,4.57
2023-07-03T08:51:34.261Z,6.53
2023-07-03T08:54:16.479Z,12.00
2023-07-03T08:56:43.395Z,7.88
2023-07-03T08:59:09.852Z,4.50
2023-07-03T09:01:55.204Z,11.40
2023-07-03T09:04:40.412Z,4.60
2023-07-03T09:07:09.913Z,12.27
2023-07-03T09:09:47.088Z,7.30
2023-07-03T09:12:19.160Z,3.88
2023-07-03T09:14:49.581Z,9.18
2023-07-03T09:17:17.449Z,11.85
2023-07-03T09:19:45.988Z,6.50
2023-07-03T09:22:17.808Z,8.07
2023-07-03T09:24:45.420Z,9.27
2023-07-03T09:27:26.187Z,5.25
2023-07-03T09:29:53.998Z,5.60
2023-07-03T09:32:25.546Z,10.63
2023-07-03T09:35:11.722Z,4.57
2023-07-03T09:37:42.459Z,9.02
2023-07-03T09:40:13.559Z,5.00
2023-07-03T09:42:41.594Z,4.93
2023-07-03T09:45:15.467Z,8.43
2023-07-03T09:47:43.438Z,5.13
2023-07-03T09:52:47.256Z,8.00
2023-07-03T09:55:21.244Z,6.40
2023-07-03T09:57:48.228Z,8.30
2023-07-03T10:00:22.939Z,10.23
2023-07-03T10:08:02.248Z,5.00
2023-07-03T10:13:13.217Z,10.05
2023-07-03T10:15:41.560Z,4.47
2023-07-03T10:18:14.717Z,6.22
2023-07-03T10:20:43.586Z,10.55
2023-07-03T10:23:11.565Z,7.18
2023-07-03T10:25:41.170Z,6.28
2023-07-03T10:28:10.641Z,5.45
2023-07-03T10:30:38.174Z,6.72
2023-07-03T10:33:08.219Z,7.85
2023-07-03T10:35:35.127Z,6.00
2023-07-03T10:38:17.013Z,3.58
2023-07-03T10:40:56.295Z,2.45
2023-07-03T10:43:24.169Z,4.45
2023-07-03T10:45:51.291Z,4.55
2023-07-03T10:48:21.044Z,5.25
2023-07-03T10:50:47.777Z,9.25
2023-07-03T10:53:23.503Z,11.10
2023-07-03T10:55:55.826Z,7.15
2023-07-03T10:58:27.824Z,5.05
2023-07-03T11:03:24.715Z,4.53
2023-07-03T11:06:14.130Z,4.53
2023-07-03T11:08:49.711Z,5.28
2023-07-03T11:11:25.158Z,7.65
2023-07-03T11:13:54.724Z,8.32
2023-07-03T11:16:23.808Z,10.65
2023-07-03T11:29:06.682Z,7.15
2023-07-03T11:31:33.270Z,6.00
2023-07-03T11:36:51.174Z,9.40
2023-07-03T11:44:42.113Z,6.80
2023-07-03T11:47:13.921Z,8.20
2023-07-03T11:49:48.434Z,6.82
2023-07-03T11:52:23.883Z,11.80
2023-07-03T11:54:59.006Z,8.07
2023-07-03T11:57:33.438Z,9.57
2023-07-03T12:02:43.896Z,4.30
2023-07-03T12:05:33.163Z,2.10
2023-07-03T12:08:01.714Z,8.65
2023-07-03T12:10:30.648Z,9.35
2023-07-03T12:13:23.223Z,10.90
2023-07-03T12:15:56.632Z,3.37
2023-07-03T12:18:24.979Z,5.93
2023-07-03T12:21:05.294Z,8.23
2023-07-03T12:23:37.580Z,9.55
2023-07-03T12:28:35.139Z,6.25
2023-07-03T12:31:13.106Z,8.23
2023-07-03T12:33:55.476Z,9.32
2023-07-03T12:36:34.225Z,5.90
2023-07-03T12:39:10.318Z,4.32
2023-07-03T12:41:37.914Z,3.05
2023-07-03T12:44:08.694Z,6.25
2023-07-03T12:46:39.995Z,4.97
2023-07-03T12:49:13.214Z,9.07
2023-07-03T12:51:52.805Z,3.78
2023-07-03T12:54:19.984Z,2.15
2023-07-03T12:56:46.512Z,6.82
2023-07-03T12:59:16.149Z,10.80
2023-07-03T13:01:42.689Z,7.18
2023-07-03T13:04:10.597Z,12.50
2023-07-03T13:06:37.133Z,3.50
2023-07-03T13:09:05.253Z,8.90
2023-07-03T13:11:33.104Z,2.92
2023-07-03T13:14:11.437Z,2.70
2023-07-03T13:16:38.048Z,10.30
2023-07-03T13:19:12.108Z,5.15
2023-07-03T13:21:39.852Z,8.80
2023-07-03T13:24:07.957Z,4.45
2023-07-03T13:26:37.630Z,5.55
2023-07-03T13:29:05.288Z,16.70
2023-07-03T13:31:42.703Z,12.45
2023-07-03T13:34:19.983Z,3.70
2023-07-03T13:37:01.613Z,7.32
2023-07-03T13:39:30.339Z,22.52
2023-07-03T13:41:58.216Z,5.50
2023-07-03T13:44:25.411Z,4.47
2023-07-03T13:46:53.002Z,2.10
2023-07-03T13:49:19.849Z,3.33
2023-07-03T13:51:47.208Z,10.02
2023-07-03T13:54:14.295Z,3.55
2023-07-03T13:56:41.789Z,4.75
2023-07-03T13:59:10.427Z,10.43
2023-07-03T14:01:37.618Z,3.45
2023-07-03T14:04:04.539Z,5.75
2023-07-03T14:06:31.091Z,9.02
2023-07-03T14:08:59.105Z,7.20
2023-07-03T14:11:25.526Z,8.43
2023-07-03T14:13:53.103Z,8.45
2023-07-03T14:16:19.745Z,8.52
2023-07-03T14:18:46.204Z,7.70
2023-07-03T14:21:13.088Z,2.80
2023-07-03T14:23:39.502Z,4.72
2023-07-03T14:26:06.062Z,6.53
2023-07-03T14:28:32.499Z,4.75
2023-07-03T14:30:58.927Z,4.40
2023-07-03T14:33:25.377Z,5.22
2023-07-03T14:35:52.085Z,4.13
2023-07-03T14:38:19.556Z,7.80
2023-07-03T14:40:45.984Z,7.78
2023-07-03T14:43:12.517Z,2.58
2023-07-03T14:45:39.583Z,3.38
2023-07-03T14:48:06.582Z,4.97
2023-07-03T14:50:33.028Z,5.45
2023-07-03T14:53:00.068Z,2.22
2023-07-03T14:55:27.613Z,5.70
2023-07-03T14:57:54.187Z,7.75
2023-07-03T15:00:24.249Z,4.03
2023-07-03T15:02:52.793Z,12.73
2023-07-03T15:05:21.198Z,7.05
2023-07-03T15:07:51.189Z,4.80
2023-07-03T15:10:19.466Z,6.40
2023-07-03T15:12:47.047Z,7.75
2023-07-03T15:15:13.975Z,4.43
2023-07-03T15:17:40.696Z,5.72
2023-07-03T15:20:07.851Z,3.20
2023-07-03T15:22:34.604Z,4.88
2023-07-03T15:25:01.012Z,2.20
2023-07-03T15:27:27.780Z,5.00
2023-07-03T15:29:55.399Z,2.53
2023-07-03T15:32:22.016Z,6.05
2023-07-03T15:34:49.462Z,10.27
2023-07-03T15:37:15.944Z,7.13
2023-07-03T15:39:42.296Z,5.82
2023-07-03T15:42:10.388Z,7.35
2023-07-03T15:44:37.375Z,7.68
2023-07-03T15:47:07.045Z,5.35
2023-07-03T15:49:36.594Z,5.38
2023-07-03T15:52:04.069Z,7.63
2023-07-03T15:54:30.512Z,5.05
2023-07-03T15:56:57.098Z,7.88
2023-07-03T15:59:25.654Z,9.07
2023-07-03T16:01:52.392Z,3.25
2023-07-03T16:04:18.911Z,2.75
2023-07-03T16:06:46.637Z,5.10
2023-07-03T16:09:15.783Z,4.60
2023-07-03T16:11:42.429Z,3.70
2023-07-03T16:14:08.869Z,6.50
2023-07-03T16:16:35.423Z,4.70
2023-07-03T16:19:04.105Z,7.78
2023-07-03T16:21:31.600Z,5.68
2023-07-03T16:23:58.877Z,6.57
2023-07-03T16:26:26.360Z,4.93
2023-07-03T16:28:55.584Z,3.85
2023-07-03T16:31:23.573Z,1.58
2023-07-03T16:33:51.165Z,4.43
2023-07-03T16:36:18.897Z,5.07
2023-07-03T16:38:50.149Z,3.75
2023-07-03T16:41:18.370Z,3.38
2023-07-03T16:43:47.954Z,3.10
2023-07-03T16:46:18.896Z,3.83
2023-07-03T16:48:45.910Z,5.88
2023-07-03T16:51:12.317Z,2.67
2023-07-03T16:53:40.596Z,8.95
2023-07-03T16:56:08.609Z,6.78
2023-07-03T16:58:37.450Z,3.33
2023-07-03T17:01:04.922Z,5.57
2023-07-03T17:03:34.479Z,7.22
2023-07-03T17:06:01.492Z,5.40
2023-07-03T17:08:28.313Z,5.35
2023-07-03T17:10:55.344Z,4.90
2023-07-03T17:13:21.871Z,13.23
2023-07-03T17:15:49.032Z,9.27
2023-07-03T17:18:15.627Z,7.10
2023-07-03T17:20:42.136Z,8.95
2023-07-03T17:23:09.355Z,3.22
2023-07-03T17:25:35.901Z,11.07
2023-07-03T17:28:04.879Z,10.45
2023-07-03T17:30:31.700Z,18.73
2023-07-03T17:32:59.711Z,6.50
2023-07-03T17:35:26.171Z,11.40
2023-07-03T17:37:53.781Z,10.43
2023-07-03T17:40:20.267Z,9.85
2023-07-03T17:42:46.756Z,10.27
2023-07-03T17:45:13.247Z,6.57
2023-07-03T17:47:39.799Z,5.13
2023-07-03T17:50:06.788Z,11.68
2023-07-03T17:52:33.189Z,9.20
2023-07-03T17:54:59.572Z,8.45
2023-07-03T17:57:25.948Z,19.27
2023-07-03T17:59:52.429Z,11.25
2023-07-03T18:02:20.222Z,8.48
2023-07-03T18:04:46.676Z,9.80
2023-07-03T18:07:15.423Z,8.27
2023-07-03T18:09:43.546Z,4.75
2023-07-03T18:12:15.874Z,5.40
2023-07-03T18:14:43.063Z,10.00
2023-07-03T18:17:09.838Z,9.38
2023-07-03T18:19:36.276Z,9.35
2023-07-03T18:22:02.734Z,6.47
2023-07-03T18:24:29.264Z,7.05
2023-07-03T18:26:56.217Z,6.60
2023-07-03T18:29:23.391Z,6.85
2023-07-03T18:31:53.915Z,13.55
2023-07-03T18:34:20.761Z,4.45
2023-07-03T18:36:47.340Z,7.25
2023-07-03T18:39:14.180Z,10.60
2023-07-03T18:41:45.415Z,10.48
2023-07-03T18:44:12.221Z,18.90
2023-07-03T18:46:38.788Z,12.90
2023-07-03T18:49:05.206Z,8.35
2023-07-03T18:51:33.166Z,16.60
2023-07-03T18:53:59.684Z,7.22
2023-07-03T18:56:26.596Z,10.63
2023-07-03T18:58:54.054Z,10.95
2023-07-03T19:01:23.253Z,7.65
2023-07-03T19:03:49.703Z,21.88
2023-07-03T19:06:17.667Z,8.82
2023-07-03T19:08:44.129Z,8.88
2023-07-03T19:11:11.081Z,21.65
2023-07-03T19:13:38.133Z,8.20
2023-07-03T19:16:10.552Z,12.77
2023-07-03T19:21:04.486Z,13.88
2023-07-03T19:23:30.980Z,14.20
2023-07-03T19:25:58.578Z,11.30
2023-07-03T19:28:28.078Z,8.57
2023-07-03T19:30:57.412Z,13.63
2023-07-03T19:33:24.388Z,6.85
2023-07-03T19:35:51.497Z,13.82
2023-07-03T19:38:18.794Z,9.75
2023-07-03T19:40:46.990Z,10.65
2023-07-03T19:43:13.413Z,15.73
2023-07-03T19:45:40.477Z,12.80
2023-07-03T19:48:07.738Z,10.98
2023-07-03T19:50:36.077Z,8.93
2023-07-03T19:53:02.970Z,8.82
2023-07-03T19:55:33.121Z,6.05
2023-07-03T19:57:59.939Z,10.82
2023-07-03T20:00:27.687Z,10.55
2023-07-03T20:02:54.562Z,5.88
2023-07-03T20:05:24.305Z,6.60
2023-07-03T20:07:52.824Z,9.82
2023-07-03T20:10:20.397Z,6.82
2023-07-03T20:12:52.131Z,10.05
2023-07-03T20:15:25.066Z,11.93
2023-07-03T20:17:52.583Z,6.45
2023-07-03T20:20:19.092Z,5.57
2023-07-03T20:22:45.745Z,8.45
2023-07-03T20:25:12.637Z,7.82
2023-07-03T20:27:40.212Z,13.68
2023-07-03T20:30:06.948Z,11.93
2023-07-03T20:32:34.511Z,12.05
2023-07-03T20:35:02.822Z,8.25
2023-07-03T20:37:30.811Z,9.93
2023-07-03T20:40:00.371Z,8.85
2023-07-03T20:42:28.086Z,12.50
2023-07-03T20:45:03.776Z,8.57
2023-07-03T20:47:32.613Z,5.00
2023-07-03T20:50:00.956Z,9.18
2023-07-03T20:52:28.454Z,6.60
2023-07-03T20:55:05.786Z,9.65
2023-07-03T20:57:36.899Z,3.97
2023-07-03T21:00:06.019Z,7.43
2023-07-03T21:02:33.352Z,4.00
2023-07-03T21:05:00.235Z,7.82
2023-07-03T21:07:26.659Z,6.25
2023-07-03T21:09:53.070Z,5.38
2023-07-03T21:12:19.862Z,6.65
2023-07-03T21:14:47.362Z,7.05
2023-07-03T21:17:14.019Z,8.77
2023-07-03T21:19:40.966Z,5.40
2023-07-03T21:22:09.016Z,5.97
2023-07-03T21:24:35.450Z,9.35
2023-07-03T21:27:01.941Z,9.88
2023-07-03T21:29:28.396Z,7.55
2023-07-03T21:31:54.840Z,5.45
2023-07-03T21:34:21.766Z,5.82
2023-07-03T21:36:48.641Z,9.45
2023-07-03T21:39:15.064Z,7.82
2023-07-03T21:41:43.047Z,8.57
2023-07-03T21:44:11.238Z,14.45
2023-07-03T21:46:37.923Z,12.45
2023-07-03T21:49:04.403Z,10.13
2023-07-03T21:51:30.962Z,9.05
2023-07-03T21:53:57.931Z,13.38
2023-07-03T21:56:28.663Z,7.13
2023-07-03T21:58:56.089Z,5.82
2023-07-03T22:01:31.131Z,10.23
2023-07-03T22:03:59.247Z,7.38
2023-07-03T22:06:26.732Z,12.32
2023-07-03T22:08:53.339Z,8.63
2023-07-03T22:11:20.048Z,5.28
2023-07-03T22:13:49.812Z,8.35
2023-07-03T22:16:18.793Z,5.95
2023-07-03T22:18:45.740Z,5.82
2023-07-03T22:21:12.689Z,5.70
2023-07-03T22:23:39.147Z,7.10
2023-07-03T22:26:05.866Z,7.25
2023-07-03T22:28:32.353Z,5.80
2023-07-03T22:31:00.149Z,5.05
2023-07-03T22:33:27.006Z,7.30
2023-07-03T22:35:53.952Z,4.35
2023-07-03T22:38:20.916Z,4.00
2023-07-03T22:40:49.427Z,3.65
2023-07-03T22:43:18.832Z,7.40
2023-07-03T22:45:53.190Z,7.47
2023-07-03T22:48:20.263Z,7.65
2023-07-03T22:50:53.517Z,4.05
2023-07-03T22:53:20.036Z,8.32
2023-07-03T22:55:46.553Z,5.03
2023-07-03T22:58:12.977Z,4.45
2023-07-03T23:00:40.024Z,5.05
2023-07-03T23:03:07.030Z,6.00
2023-07-03T23:05:34.629Z,2.55
2023-07-03T23:08:01.208Z,8.95
2023-07-03T23:10:27.639Z,5.10
2023-07-03T23:12:54.067Z,4.72
2023-07-03T23:15:20.498Z,7.85
2023-07-03T23:17:47.245Z,4.75
2023-07-03T23:20:15.659Z,4.40
2023-07-03T23:22:42.782Z,8.10
2023-07-03T23:25:09.641Z,10.40
2023-07-03T23:27:36.094Z,13.38
2023-07-03T23:30:05.354Z,9.70
2023-07-03T23:32:32.961Z,11.15
2023-07-03T23:34:59.630Z,6.15
2023-07-03T23:37:26.073Z,11.35
2023-07-03T23:39:52.529Z,15.70
2023-07-03T23:42:18.966Z,10.75
2023-07-03T23:44:46.406Z,7.75
2023-07-03T23:47:14.163Z,5.75
2023-07-03T23:49:40.765Z,16.80
2023-07-03T23:52:07.543Z,4.07
2023-07-03T23:54:34.823Z,14.48
2023-07-03T23:57:01.305Z,13.38
2023-07-03T23:59:28.161Z,10.57
